Suffolk, VA (23438)

3:43 AM EDT on July 30, 2016 (GMT -0400)
Whaleyville | | Change Station

Elev 98 ft 36.58 °N, 76.64 °W | Updated 2 minutes ago

Clear
Clear
72.0 °F
Feels Like 72.0 °F
N
0.0
Wind Variable Wind from WNW
Gusts 0.0 mph

Today
High -- | Low -- °F
--% Chance of Precip.
Yesterday
High -- | Low -- °F
Precip. -- in
Pressure 29.94 in
Visibility 10.0 miles
Clouds Clear
Dew Point 71 °F
Humidity 96%
Rainfall 0.00 in
Snow Depth Not available.
6:11 AM 8:14 PM
Waning Crescent, 15% visible
METAR KSFQ 300735Z AUTO 00000KT 10SM CLR 23/22 A2994 RMK AO2 T02280219
Pressure 29.94 in
Visibility 10.0 miles
Clouds Clear
Dew Point 71 °F
Humidity 96%
Rainfall 0.00 in
Snow Depth Not available.
6:11 AM 8:14 PM
Waning Crescent, 15% visible
METAR KSFQ 300735Z AUTO 00000KT 10SM CLR 23/22 A2994 RMK AO2 T02280219

10-Day Weather Forecast

Almanac

Astronomy

Jul. 30, 2016 Rise Set
Actual Time
Civil Twilight
Nautical Twilight
Astronomical Twilight
Moon
Length of Visible Light
Length of Day
Tomorrow will be .
, % of the Moon is Illuminated

Today's Extremes

State Highs State Lows

Community

WunderPhotos

Upload Photos

1,928,508 photos uploaded!

WunderBlog® & News

Nearby

Air Quality

  Air Quality AQ Index Pollutant
Not available.

Snow Depth

Station Depth Elevation

Earthquake Activity

City Distance Mag. Time & Date
Minimum magnitude displayed is 2.5.

Coastal Water Temperatures

Place Temperature

Stations

Nearby Weather Stations

Station Location Temp. Windchill Dew Point Humidity Wind Precip. Elev Updated Type
                   

Watches & Warnings

There are currently no watches in effect.